Bei Facebook empfehlenBei Twitter postenGoogle plusPinterest

Das Wetter im Erzgebirge am 27.09.2016

Wetter und Klima am 27.09.2016 Holzhau im Erzgebirge (630m ü.NN)
Letzte gemessene Temperatur und Uhrzeit der Messung23:45:00 Uhr5.90 °C
Temperatur (Maximum / Höchstwert) und Uhrzeit der Messung15:45:00 Uhr20.50 °C
Temperatur (Minimum / Tiefstwert) und Uhrzeit der Messung23:45:005.90 °C
Errechneter Absolutwert der Temperaturschwankungen zwischen Tmin und Tmax des Tages14.60 K
Errechnete Tagesmitteltemperatur11.80521 °C
Gesamt - Niederschlag des Tages (in flüssiger Form)0.00 Liter / m²
Luftdruck (Maximum / Höchstwert) und Zeitpunkt der Messung20:30:00 Uhr1024.70 hPa
Luftdruck (Minimum / Tiefstwert) und Zeitpunkt der Messung02:45:00 Uhr1020.10 hPa
Errechneter Absolutwert der Luftdruckschwankungen des Tages4.60 hPa
Höchste gemessene Windgeschwindigkeit und Uhrzeit der Messung23:45:00 Uhr0.00 km/h
Errechnete Windhäufigkeit in Relation zu den Messwerten des Tages0.00000 %
Niedrigste Windkühle (Windchill) und Zeitpunkt der Messung23:45:00 Uhr5.90 °C
Taupunkt (Maximum / Höchstwert) und Uhrzeit der Messung12:30:00 Uhr15.20 °C
Taupunkt (Minimum / Tiefstwert) und Uhrzeit der Messung23:45:004.40 °C
Anzahl der automatisch eingelesenen Messwerte 96

Detaillierte Wetter- und Klima- Messwerte für den 27.09.2016 in Holzhau im Erzgebirge (630m ü.NN)
ZeitTemperaturLuftdruckRel. LuftfeuchteWindWindrichtungWindchillTaupunktNiederschlag l/m²
23:45:005.90 °C1024.30 hPa90.00 %4.40 °C 
23:30:006.20 °C1024.40 hPa90.00 %4.70 °C 
23:15:006.40 °C1024.30 hPa90.00 %4.90 °C 
23:00:006.40 °C1024.10 hPa89.00 %4.70 °C 
22:45:006.50 °C1024.20 hPa89.00 %4.80 °C 
22:30:006.80 °C1024.00 hPa89.00 %5.10 °C 
22:15:007.00 °C1024.20 hPa88.00 %5.20 °C 
22:00:007.20 °C1024.20 hPa88.00 %5.30 °C 
21:45:007.30 °C1024.30 hPa88.00 %5.40 °C 
21:30:007.30 °C1024.50 hPa87.00 %5.30 °C 
21:15:007.60 °C1024.50 hPa86.00 %5.40 °C 
21:00:008.10 °C1024.30 hPa85.00 %5.70 °C 
20:45:008.30 °C1024.60 hPa85.00 %5.90 °C 
20:30:008.60 °C1024.70 hPa84.00 %6.10 °C 
20:15:008.90 °C1024.50 hPa83.00 %6.20 °C 
20:00:009.20 °C1024.60 hPa81.00 %6.10 °C 
19:45:009.80 °C1024.70 hPa80.00 %6.50 °C 
19:30:0010.20 °C1024.50 hPa78.00 %6.50 °C 
19:15:0010.90 °C1024.30 hPa76.00 %6.80 °C 
19:00:0011.90 °C1024.10 hPa73.00 %7.20 °C 
18:45:0013.30 °C1024.20 hPa71.00 %8.20 °C 
18:30:0014.80 °C1023.90 hPa69.00 %9.20 °C 
18:15:0015.90 °C1024.00 hPa68.00 %10.00 °C 
18:00:0016.60 °C1023.90 hPa66.00 %10.20 °C 
17:45:0017.40 °C1023.90 hPa64.00 %10.50 °C 
17:30:0018.30 °C1023.80 hPa64.00 %11.40 °C 
17:15:0018.80 °C1023.70 hPa63.00 %11.60 °C 
17:00:0019.50 °C1023.60 hPa62.00 %12.00 °C 
16:45:0019.60 °C1023.80 hPa63.00 %12.40 °C 
16:30:0020.00 °C1023.70 hPa61.00 %12.30 °C 
16:15:0020.20 °C1023.60 hPa61.00 %12.40 °C 
16:00:0020.40 °C1023.50 hPa61.00 %12.60 °C 
15:45:0020.50 °C1023.30 hPa63.00 %13.20 °C 
15:30:0019.90 °C1023.30 hPa63.00 %12.70 °C 
15:15:0019.90 °C1023.30 hPa64.00 %12.90 °C 
15:00:0019.40 °C1023.20 hPa64.00 %12.40 °C 
14:45:0019.30 °C1023.10 hPa64.00 %12.30 °C 
14:30:0019.80 °C1023.20 hPa68.00 %13.70 °C 
14:15:0019.60 °C1023.20 hPa69.00 %13.80 °C 
14:00:0019.60 °C1023.10 hPa71.00 %14.20 °C 
13:45:0019.70 °C1023.20 hPa72.00 %14.50 °C 
13:30:0019.00 °C1023.10 hPa75.00 %14.50 °C 
13:15:0018.60 °C1023.00 hPa77.00 %14.50 °C 
13:00:0018.30 °C1023.00 hPa79.00 %14.60 °C 
12:45:0018.40 °C1023.10 hPa80.00 %14.90 °C 
12:30:0018.10 °C1022.90 hPa83.00 %15.20 °C 
12:15:0017.20 °C1022.90 hPa86.00 %14.80 °C 
12:00:0016.30 °C1022.80 hPa88.00 %14.30 °C 
11:45:0015.90 °C1022.80 hPa90.00 %14.30 °C 
11:30:0015.20 °C1022.80 hPa92.00 %13.90 °C 
11:15:0014.80 °C1022.60 hPa93.00 %13.70 °C 
11:00:0014.10 °C1022.50 hPa93.00 %13.00 °C 
10:45:0013.80 °C1022.50 hPa93.00 %12.70 °C 
10:30:0013.50 °C1022.50 hPa94.00 %12.60 °C 
10:15:0013.20 °C1022.30 hPa95.00 %12.40 °C 
10:00:0012.70 °C1022.50 hPa95.00 %11.90 °C 
09:45:0011.90 °C1022.30 hPa95.00 %11.10 °C 
09:30:0011.80 °C1022.10 hPa95.00 %11.00 °C 
09:15:0010.80 °C1022.00 hPa95.00 %10.00 °C 
09:00:0010.10 °C1021.70 hPa95.00 %9.30 °C 
08:45:009.60 °C1021.70 hPa95.00 %8.80 °C 
08:30:009.30 °C1021.60 hPa95.00 %8.50 °C 
08:15:009.00 °C1021.50 hPa95.00 %8.20 °C 
08:00:008.60 °C1021.60 hPa94.00 %7.70 °C 
07:45:008.20 °C1021.70 hPa94.00 %7.30 °C 
07:30:008.00 °C1021.30 hPa94.00 %7.10 °C 
07:15:007.90 °C1021.00 hPa94.00 %7.00 °C 
07:00:008.40 °C1021.00 hPa94.00 %7.50 °C 
06:45:008.80 °C1020.70 hPa94.00 %7.90 °C 
06:30:009.10 °C1020.50 hPa94.00 %8.20 °C 
06:15:009.30 °C1020.50 hPa94.00 %8.40 °C 
06:00:009.30 °C1020.50 hPa94.00 %8.40 °C 
05:45:009.20 °C1020.40 hPa94.00 %8.30 °C 
05:30:009.20 °C1020.30 hPa94.00 %8.30 °C 
05:15:009.10 °C1020.40 hPa94.00 %8.20 °C 
05:00:009.10 °C1020.40 hPa94.00 %8.20 °C 
04:45:008.90 °C1020.40 hPa94.00 %8.00 °C 
04:30:008.90 °C1020.40 hPa94.00 %8.00 °C 
04:15:008.90 °C1020.20 hPa94.00 %8.00 °C 
04:00:008.80 °C1020.30 hPa93.00 %7.70 °C 
03:45:008.70 °C1020.20 hPa93.00 %7.60 °C 
03:30:008.50 °C1020.20 hPa93.00 %7.40 °C 
03:15:008.40 °C1020.20 hPa93.00 %7.30 °C 
03:00:008.30 °C1020.20 hPa93.00 %7.20 °C 
02:45:008.10 °C1020.10 hPa93.00 %7.00 °C 
02:30:007.90 °C1020.10 hPa93.00 %6.80 °C 
02:15:007.80 °C1020.20 hPa93.00 %6.70 °C 
02:00:007.40 °C1020.10 hPa92.00 %6.20 °C 
01:45:007.10 °C1020.10 hPa92.00 %5.90 °C 
01:30:006.90 °C1020.10 hPa92.00 %5.70 °C 
01:15:006.60 °C1020.20 hPa92.00 %5.40 °C 
01:00:006.50 °C1020.20 hPa92.00 %5.30 °C 
00:45:006.60 °C1020.20 hPa92.00 %5.40 °C 
00:30:006.60 °C1020.40 hPa91.00 %5.20 °C 
00:15:006.80 °C1020.30 hPa91.00 %5.40 °C 
00:00:006.80 °C1020.30 hPa91.00 %5.40 °C 

Permanenter Link zu dieser Seite: Wetter im Erzgebirge am 27.09.2016
Performance-Info: Die Erstellung der Seite / Statistik(en) / Tabelle(n) erforderte 5 Datenbankserver-Abfrage(n) und dauerte 102 Millisekunden. (Dieser Messwert ist von der Gesamt-Auslastung des Servers abhängig.)
Erzgebirge - Wetter | Erzgebirge - Wetter (Mobilgeräte) | Komplette Klimadatenbank